Time;durP1;ratioP1;P1;durP2;ratioP2;P2;SDS_P1;SDS_P2;PMS_P1;PMS_P2;Temp;Humidity;BMP_temperature;BMP_pressure;BME280_temperature;BME280_humidity;BME280_pressure;Samples;Min_cycle;Max_cycle;Signal;HPM_P1;HPM_P2
2023/10/16 00:01:56;;;;;;;1.95;1.30;;;;;;;21.10;65.37;101365.03;6003140;23;20881;-79
2023/10/16 00:04:23;;;;;;;4.82;1.33;;;;;;;21.05;64.15;101378.25;6044484;23;20403;-78
2023/10/16 00:06:50;;;;;;;5.80;1.38;;;;;;;21.27;65.06;101370.22;5991931;23;20470;-77
2023/10/16 00:09:23;;;;;;;3.40;1.60;;;;;;;20.94;64.18;101357.09;6003508;23;20439;-78
2023/10/16 00:11:49;;;;;;;3.88;1.38;;;;;;;21.21;65.83;101376.38;6006787;23;20390;-78
2023/10/16 00:14:23;;;;;;;3.35;1.15;;;;;;;20.99;63.87;101330.41;6002918;23;20019;-78
2023/10/16 00:16:51;;;;;;;3.05;1.20;;;;;;;21.24;64.90;101375.97;6042801;23;20086;-78
2023/10/16 00:19:18;;;;;;;4.72;1.40;;;;;;;21.33;65.64;101374.84;6002304;23;20070;-78
2023/10/16 00:21:45;;;;;;;9.60;2.22;;;;;;;21.25;64.96;101372.28;6008001;23;20059;-79
2023/10/16 00:24:16;;;;;;;2.75;1.13;;;;;;;21.44;64.29;101379.00;5984274;23;20106;-78
2023/10/16 00:26:50;;;;;;;6.75;1.83;;;;;;;21.12;64.22;101344.09;6041499;23;20023;-78
2023/10/16 00:29:21;;;;;;;4.18;1.33;;;;;;;21.09;64.64;101378.69;5998244;23;20022;-78
2023/10/16 00:31:51;;;;;;;2.70;1.00;;;;;;;20.91;62.01;101392.56;6002202;23;20710;-79
2023/10/16 00:34:20;;;;;;;5.20;1.17;;;;;;;20.80;63.71;101364.19;6012315;23;20026;-78
2023/10/16 00:36:47;;;;;;;2.85;1.10;;;;;;;20.96;63.07;101395.56;5999444;23;20030;-78
2023/10/16 00:39:19;;;;;;;2.28;1.17;;;;;;;20.83;63.78;101365.69;6037722;23;20473;-78
2023/10/16 00:41:46;;;;;;;4.60;0.90;;;;;;;20.85;61.76;101399.56;6031625;23;20446;-79
2023/10/16 00:44:22;;;;;;;2.03;1.13;;;;;;;20.99;66.05;101399.75;5998762;23;20384;-79
2023/10/16 00:46:50;;;;;;;5.70;1.13;;;;;;;21.05;63.28;101405.25;6000770;23;20034;-79
2023/10/16 00:49:19;;;;;;;1.90;0.90;;;;;;;20.97;63.55;101401.78;6000806;23;20451;-79
2023/10/16 00:51:46;;;;;;;1.80;1.13;;;;;;;20.70;64.12;101382.50;6060325;23;20646;-78
2023/10/16 00:54:27;;;;;;;6.13;1.23;;;;;;;20.76;64.61;101367.44;5996055;23;20117;-78
2023/10/16 00:56:59;;;;;;;1.92;0.95;;;;;;;20.85;63.71;101398.69;6038038;23;20057;-77
2023/10/16 00:59:28;;;;;;;2.97;0.90;;;;;;;20.79;63.41;101377.88;6029811;23;20023;-78
2023/10/16 01:02:15;;;;;;;3.03;1.20;;;;;;;20.86;62.99;101400.38;6005108;23;20029;-76
2023/10/16 01:04:43;;;;;;;4.97;1.00;;;;;;;20.47;63.37;101358.25;6016989;23;20020;-77
2023/10/16 01:07:14;;;;;;;2.55;0.90;;;;;;;20.41;61.71;101373.31;5999267;23;20062;-78
2023/10/16 01:09:50;;;;;;;2.35;0.93;;;;;;;20.52;63.73;101399.00;6007202;23;20227;-77
2023/10/16 01:12:20;;;;;;;2.15;1.00;;;;;;;20.12;63.60;101347.09;5991887;23;20082;-76
2023/10/16 01:14:47;;;;;;;5.53;0.80;;;;;;;20.23;61.21;101397.88;6002399;23;20031;-78
2023/10/16 01:17:14;;;;;;;4.05;1.33;;;;;;;19.92;60.37;101383.63;6018554;23;20208;-79
2023/10/16 01:19:46;;;;;;;1.70;0.90;;;;;;;18.97;60.36;101275.09;6025883;23;20446;-79
2023/10/16 01:22:14;;;;;;;4.95;0.85;;;;;;;19.58;60.65;101411.75;6004754;23;20019;-79
2023/10/16 01:24:44;;;;;;;2.78;1.08;;;;;;;19.42;61.45;101401.91;5993562;23;20020;-77
2023/10/16 01:27:26;;;;;;;5.10;1.40;;;;;;;19.20;60.75;101392.75;5992550;23;20027;-79
2023/10/16 01:29:54;;;;;;;3.70;1.00;;;;;;;19.09;61.13;101401.19;5962903;23;20582;-78
2023/10/16 01:32:21;;;;;;;1.08;0.82;;;;;;;18.92;63.29;101349.28;5934592;23;20452;-78
2023/10/16 01:34:50;;;;;;;4.45;0.85;;;;;;;19.22;61.44;101417.59;5963867;23;20038;-78
2023/10/16 01:37:18;;;;;;;3.05;1.10;;;;;;;19.07;61.06;101414.81;5982424;23;20030;-77
2023/10/16 01:39:48;;;;;;;4.03;0.60;;;;;;;18.96;62.34;101405.25;6005758;23;20025;-77
2023/10/16 01:42:18;;;;;;;4.75;0.90;;;;;;;18.97;61.32;101415.00;6015151;23;20020;-79
2023/10/16 01:44:52;;;;;;;5.63;1.05;;;;;;;18.94;61.09;101420.72;6018561;23;20078;-78
2023/10/16 01:47:19;;;;;;;5.15;1.00;;;;;;;18.90;61.24;101419.38;5996469;23;20545;-78
2023/10/16 01:49:50;;;;;;;3.97;1.00;;;;;;;18.84;61.39;101430.84;5989251;23;20019;-77
2023/10/16 01:52:17;;;;;;;3.83;0.90;;;;;;;18.69;61.19;101416.34;6008544;23;20439;-76
2023/10/16 01:54:50;;;;;;;1.05;0.90;;;;;;;18.46;64.05;101362.44;6029414;23;20336;-77
2023/10/16 01:57:18;;;;;;;7.40;1.00;;;;;;;18.85;62.91;101420.91;5998471;23;20023;-77
2023/10/16 01:59:47;;;;;;;2.30;0.95;;;;;;;18.87;61.91;101422.41;5990992;23;20118;-76
2023/10/16 02:02:16;;;;;;;4.53;1.10;;;;;;;18.77;61.41;101430.66;6015182;23;20033;-77
2023/10/16 02:04:43;;;;;;;4.20;1.00;;;;;;;18.69;61.95;101427.09;6015267;23;20026;-77
2023/10/16 02:07:11;;;;;;;3.08;0.85;;;;;;;18.79;62.20;101439.41;6019830;23;20061;-77
2023/10/16 02:09:40;;;;;;;4.88;0.95;;;;;;;18.68;61.36;101430.81;6022610;23;20019;-78
2023/10/16 02:12:14;;;;;;;7.85;1.27;;;;;;;18.66;61.34;101438.22;6006677;23;20050;-78
2023/10/16 02:14:44;;;;;;;4.68;1.05;;;;;;;18.41;60.66;101430.16;6011331;23;20027;-77
2023/10/16 02:17:19;;;;;;;2.90;0.80;;;;;;;17.55;63.25;101294.38;6002103;23;20229;-78
2023/10/16 02:19:47;;;;;;;2.55;0.75;;;;;;;18.39;61.54;101447.47;6024767;23;20351;-77
2023/10/16 02:22:18;;;;;;;1.65;0.75;;;;;;;18.24;62.19;101434.69;5994754;23;20026;-78
2023/10/16 02:24:48;;;;;;;2.58;1.02;;;;;;;18.32;61.78;101452.66;6023388;23;20023;-77
2023/10/16 02:27:20;;;;;;;4.28;1.10;;;;;;;18.30;61.55;101443.91;6038737;23;20051;-77
2023/10/16 02:29:52;;;;;;;2.92;1.23;;;;;;;18.33;61.28;101449.81;6013794;23;20019;-79
2023/10/16 02:32:22;;;;;;;1.20;0.70;;;;;;;17.90;60.36;101408.75;6014800;23;20022;-78
2023/10/16 02:34:54;;;;;;;4.05;0.82;;;;;;;18.07;60.54;101436.50;6002943;23;20439;-78
2023/10/16 02:37:21;;;;;;;1.50;0.60;;;;;;;17.67;60.32;101400.47;5999094;23;20402;-79
2023/10/16 02:39:53;;;;;;;4.00;1.00;;;;;;;17.80;62.05;101453.72;6004856;23;20078;-77
2023/10/16 02:42:21;;;;;;;2.70;0.90;;;;;;;17.47;60.74;101410.59;6019316;23;20346;-77
2023/10/16 02:44:51;;;;;;;5.78;0.90;;;;;;;17.75;61.30;101455.19;5991584;23;20031;-77
2023/10/16 02:47:26;;;;;;;1.38;0.60;;;;;;;17.51;61.73;101416.50;5986306;23;20050;-78
2023/10/16 02:49:56;;;;;;;2.70;0.90;;;;;;;17.70;61.69;101453.84;6004792;23;20029;-77
2023/10/16 02:52:25;;;;;;;3.75;1.15;;;;;;;17.72;59.41;101457.19;5999689;23;20050;-78
2023/10/16 02:54:56;;;;;;;2.15;1.00;;;;;;;17.44;60.06;101463.78;6002759;23;20375;-77
2023/10/16 02:57:25;;;;;;;1.77;0.80;;;;;;;17.47;59.54;101461.59;5987046;23;20538;-77
2023/10/16 02:59:52;;;;;;;2.20;0.90;;;;;;;17.38;59.19;101453.69;6019944;23;20573;-78
2023/10/16 03:02:22;;;;;;;4.45;1.00;;;;;;;17.44;58.85;101458.41;6013063;23;20027;-78
2023/10/16 03:04:54;;;;;;;4.32;1.00;;;;;;;17.31;58.42;101472.28;6000347;23;20023;-77
2023/10/16 03:07:21;;;;;;;;;;;;;;;17.15;58.40;101470.34;6042319;23;20031;-78
2023/10/16 03:09:51;;;;;;;3.75;1.10;;;;;;;17.02;59.21;101445.78;5991517;23;20329;-77
2023/10/16 03:12:27;;;;;;;8.23;0.98;;;;;;;17.12;59.18;101465.28;5997030;23;20699;-78
2023/10/16 03:15:15;;;;;;;6.22;0.90;;;;;;;17.20;58.67;101477.91;5987059;23;20949;-78
2023/10/16 03:17:42;;;;;;;2.67;0.90;;;;;;;17.11;60.33;101485.06;5970520;23;20030;-78
2023/10/16 03:20:35;;;;;;;1.80;1.02;;;;;;;17.29;58.20;101469.75;5980987;23;20027;-78
2023/10/16 03:23:09;;;;;;;3.63;1.13;;;;;;;17.02;57.80;101475.28;6001430;23;20421;-77
2023/10/16 03:25:53;;;;;;;4.22;0.80;;;;;;;16.90;60.09;101471.19;5967477;23;20023;-78
2023/10/16 03:28:23;;;;;;;2.60;1.00;;;;;;;16.76;58.68;101467.19;5999025;23;20018;-77
2023/10/16 03:30:51;;;;;;;6.47;1.38;;;;;;;16.43;58.25;101458.84;5970435;23;20156;-78
2023/10/16 03:33:19;;;;;;;9.63;1.48;;;;;;;16.38;58.29;101479.91;6005791;23;20824;-78
2023/10/16 03:35:49;;;;;;;5.28;1.00;;;;;;;16.64;60.50;101504.97;6012306;23;20118;-77
2023/10/16 03:38:27;;;;;;;8.93;1.67;;;;;;;16.30;58.12;101445.03;6024924;23;20019;-77
2023/10/16 03:40:58;;;;;;;7.28;1.30;;;;;;;16.17;57.96;101442.72;6035815;23;20030;-77
2023/10/16 03:43:26;;;;;;;2.15;1.10;;;;;;;16.34;58.42;101492.78;6027854;23;20022;-76
2023/10/16 03:45:53;;;;;;;2.95;1.10;;;;;;;16.22;58.41;101477.94;5998723;23;20073;-77
2023/10/16 03:48:21;;;;;;;1.90;0.80;;;;;;;16.43;61.43;101480.31;6006968;23;20399;-78
2023/10/16 03:50:48;;;;;;;4.65;1.20;;;;;;;16.42;58.73;101479.47;6013090;23;20015;-78
2023/10/16 03:53:16;;;;;;;3.40;1.05;;;;;;;16.35;58.69;101499.81;5998773;23;20023;-77
2023/10/16 03:55:44;;;;;;;4.55;1.40;;;;;;;16.33;58.48;101491.09;6013741;23;20023;-78
2023/10/16 03:58:14;;;;;;;1.80;0.90;;;;;;;16.41;58.32;101499.22;5996508;23;20038;-78
2023/10/16 04:00:50;;;;;;;4.45;1.30;;;;;;;16.40;57.94;101489.50;5996026;23;20361;-77
2023/10/16 04:03:19;;;;;;;4.90;1.20;;;;;;;16.38;57.87;101502.22;6000525;23;20110;-79
2023/10/16 04:05:46;;;;;;;2.90;1.20;;;;;;;16.09;58.42;101472.09;5992456;23;20458;-76
2023/10/16 04:08:21;;;;;;;5.45;1.35;;;;;;;16.13;58.70;101470.81;6014809;23;20030;-76
2023/10/16 04:10:49;;;;;;;8.27;1.50;;;;;;;16.34;57.18;101500.84;5990024;23;20400;-77
2023/10/16 04:13:18;;;;;;;11.07;1.52;;;;;;;16.10;57.27;101461.25;5998069;23;20019;-78
2023/10/16 04:23:52;;;;;;;4.53;1.48;;;;;;;16.14;57.32;101501.94;6002917;23;20918;-77
2023/10/16 04:34:25;;;;;;;3.30;1.80;;;;;;;16.07;57.35;101491.00;5987046;23;20371;-77
2023/10/16 04:45:28;;;;;;;7.22;1.73;;;;;;;15.74;57.97;101503.16;5980436;23;20027;-77
2023/10/16 04:53:11;;;;;;;2.03;1.30;;;;;;;15.71;58.09;101506.97;6017849;23;20431;-77
2023/10/16 04:55:53;;;;;;;3.63;1.17;;;;;;;15.70;58.13;101502.59;6004712;23;20247;-78
2023/10/16 05:20:13;;;;;;;3.10;1.30;;;;;;;15.53;58.02;101498.84;6027841;23;20019;-78
2023/10/16 06:16:28;;;;;;;5.03;1.40;;;;;;;15.88;55.53;101533.97;6026578;23;20023;-77
2023/10/16 06:18:59;;;;;;;9.40;1.58;;;;;;;15.87;55.74;101541.13;6048344;23;20356;-77
2023/10/16 06:21:26;;;;;;;3.47;1.35;;;;;;;15.83;55.53;101541.59;6003175;23;20370;-76
2023/10/16 06:23:54;;;;;;;4.60;1.27;;;;;;;15.80;55.92;101535.56;6051110;23;20362;-76
2023/10/16 06:26:26;;;;;;;4.97;1.70;;;;;;;15.93;55.55;101559.31;5995822;23;20031;-77
2023/10/16 06:28:54;;;;;;;5.82;2.00;;;;;;;15.93;55.86;101564.66;6043369;23;20031;-77
2023/10/16 06:31:25;;;;;;;3.85;1.10;;;;;;;15.60;56.88;101493.75;6004304;23;20211;-79
2023/10/16 06:33:57;;;;;;;7.95;1.40;;;;;;;15.94;55.63;101557.47;5994750;23;20058;-74
2023/10/16 06:36:25;;;;;;;2.22;1.30;;;;;;;15.93;55.90;101570.00;5998141;23;20054;-78
2023/10/16 06:38:52;;;;;;;10.35;1.65;;;;;;;15.78;55.61;101544.72;6038314;23;20029;-79
2023/10/16 06:41:22;;;;;;;3.13;1.63;;;;;;;15.80;56.04;101543.59;5999659;23;20342;-78
2023/10/16 06:44:00;;;;;;;7.75;1.70;;;;;;;15.84;55.99;101554.81;6015586;23;20485;-79
2023/10/16 06:46:29;;;;;;;5.55;2.17;;;;;;;15.92;56.25;101579.06;5994385;23;20065;-78
2023/10/16 06:48:57;;;;;;;8.70;2.03;;;;;;;15.90;57.03;101556.06;6014584;23;20629;-79
2023/10/16 06:51:27;;;;;;;5.15;1.75;;;;;;;16.07;56.25;101578.53;5969829;23;20023;-79
2023/10/16 06:53:56;;;;;;;1.88;1.30;;;;;;;16.02;55.55;101574.50;6050897;23;20023;-77
2023/10/16 06:56:34;;;;;;;2.33;1.63;;;;;;;16.03;55.88;101586.88;5991237;23;20467;-78
2023/10/16 06:59:02;;;;;;;2.42;1.70;;;;;;;15.95;55.97;101589.47;5985790;23;20106;-79
2023/10/16 07:01:30;;;;;;;5.47;1.83;;;;;;;15.80;56.85;101572.16;6028137;23;20031;-78
2023/10/16 07:03:57;;;;;;;3.78;1.52;;;;;;;15.90;56.19;101594.41;6018984;23;20358;-78
2023/10/16 07:06:32;;;;;;;6.43;1.88;;;;;;;15.93;55.82;101595.97;6070058;23;20090;-79
2023/10/16 07:09:06;;;;;;;7.53;1.77;;;;;;;15.92;56.49;101595.13;6012540;23;20717;-79
2023/10/16 07:11:33;;;;;;;3.92;1.70;;;;;;;15.96;56.44;101607.19;6010934;23;20328;-79
2023/10/16 07:14:02;;;;;;;4.18;1.80;;;;;;;15.96;56.76;101595.66;6059905;23;20097;-78
2023/10/16 07:16:33;;;;;;;3.75;1.42;;;;;;;16.09;56.48;101616.72;6038540;23;20854;-79
2023/10/16 07:19:03;;;;;;;3.17;1.60;;;;;;;16.07;55.48;101619.56;5985836;23;20044;-78
2023/10/16 07:21:33;;;;;;;7.47;1.70;;;;;;;16.02;55.31;101601.28;5992772;23;20450;-77
2023/10/16 07:24:02;;;;;;;2.67;1.58;;;;;;;15.68;55.50;101547.41;6019701;23;20023;-78
2023/10/16 07:26:34;;;;;;;9.82;1.58;;;;;;;16.08;56.04;101593.63;5969598;23;20102;-78
2023/10/16 07:29:02;;;;;;;10.55;1.58;;;;;;;16.20;55.46;101608.50;5991215;23;20343;-78
2023/10/16 07:31:28;;;;;;;6.45;1.75;;;;;;;16.09;55.29;101600.66;6010508;23;20029;-78
2023/10/16 07:34:04;;;;;;;5.90;1.40;;;;;;;16.02;57.93;101566.44;6021861;23;20015;-80
2023/10/16 07:36:33;;;;;;;14.07;2.50;;;;;;;16.47;56.21;101614.84;6009320;23;20422;-78
2023/10/16 07:39:02;;;;;;;4.78;2.03;;;;;;;16.59;56.04;101619.84;6058912;23;20075;-79
2023/10/16 07:41:33;;;;;;;3.60;1.85;;;;;;;16.62;55.59;101624.06;6039331;23;20363;-78
2023/10/16 07:44:04;;;;;;;4.95;2.05;;;;;;;16.42;54.66;101575.94;6003254;23;20085;-78
2023/10/16 07:46:36;;;;;;;8.05;1.92;;;;;;;16.48;54.68;101605.81;5986866;23;20287;-78
2023/10/16 07:49:09;;;;;;;6.95;2.40;;;;;;;16.45;56.10;101591.72;5991404;23;20068;-76
2023/10/16 07:51:37;;;;;;;2.33;1.60;;;;;;;16.74;56.41;101630.88;6002326;23;20023;-79
2023/10/16 07:54:07;;;;;;;2.40;1.65;;;;;;;16.69;54.51;101618.94;6041719;23;20023;-78
2023/10/16 07:56:35;;;;;;;7.15;2.25;;;;;;;16.74;54.53;101622.84;5993542;23;20034;-78
2023/10/16 08:01:57;;;;;;;12.32;2.03;;;;;;;16.31;53.82;101573.50;5997697;23;20335;-78
2023/10/16 08:10:17;;;;;;;4.72;1.67;;;;;;;16.57;55.37;101621.00;5928314;24;20910;-79
2023/10/16 08:12:46;;;;;;;5.22;1.92;;;;;;;16.58;54.40;101618.19;5994912;23;20022;-78
2023/10/16 08:15:21;;;;;;;4.72;2.00;;;;;;;16.67;54.32;101627.13;5975511;23;20019;-80
2023/10/16 08:17:51;;;;;;;8.15;1.70;;;;;;;16.64;53.88;101638.16;5960728;23;20060;-78
2023/10/16 08:20:19;;;;;;;3.28;1.73;;;;;;;16.54;53.60;101626.66;6019932;23;20759;-78
2023/10/16 08:22:51;;;;;;;9.45;2.55;;;;;;;16.34;53.60;101625.94;5970113;23;20065;-79
2023/10/16 08:25:41;;;;;;;10.68;2.53;;;;;;;16.36;54.31;101646.22;5988893;23;20228;-78
2023/10/16 08:28:35;;;;;;;7.90;2.17;;;;;;;16.33;54.73;101643.81;6011560;23;20272;-78
2023/10/16 08:31:24;;;;;;;3.22;2.38;;;;;;;16.32;54.75;101649.34;6012922;23;20019;-80
2023/10/16 08:33:56;;;;;;;3.95;1.95;;;;;;;16.30;54.37;101652.16;5988393;23;20392;-78
2023/10/16 08:36:25;;;;;;;7.43;2.40;;;;;;;16.29;54.68;101650.50;6010050;23;20019;-77
2023/10/16 08:38:57;;;;;;;10.68;2.20;;;;;;;16.21;54.50;101645.00;5981383;23;20375;-76
2023/10/16 08:41:30;;;;;;;9.93;2.40;;;;;;;16.05;54.90;101626.06;6013249;23;20408;-79
2023/10/16 08:44:07;;;;;;;4.68;2.08;;;;;;;15.97;55.67;101614.25;5944212;23;20493;-77
2023/10/16 08:46:44;;;;;;;6.47;2.17;;;;;;;16.06;55.56;101620.56;5983795;23;20042;-79
2023/10/16 08:49:14;;;;;;;4.93;2.05;;;;;;;16.25;55.25;101635.69;5984149;23;20027;-78
2023/10/16 08:51:43;;;;;;;7.28;2.30;;;;;;;16.32;54.80;101636.78;5979191;23;20112;-76
2023/10/16 08:57:03;;;;;;;8.93;2.47;;;;;;;16.24;55.71;101626.81;5957447;23;20090;-79
2023/10/16 08:59:34;;;;;;;6.15;2.55;;;;;;;15.87;55.81;101570.59;5940496;23;20455;-79
2023/10/16 09:02:07;;;;;;;;;;;;;;;16.18;56.39;101632.75;5976333;23;20432;-79
2023/10/16 09:04:38;;;;;;;7.70;2.20;;;;;;;16.15;56.37;101629.56;5965009;23;20173;-78
2023/10/16 09:07:05;;;;;;;8.88;2.60;;;;;;;16.30;56.59;101630.72;5963660;23;20055;-79
2023/10/16 09:09:39;;;;;;;2.70;1.85;;;;;;;16.17;55.77;101603.47;5967773;23;20114;-77
2023/10/16 09:12:11;;;;;;;5.18;2.38;;;;;;;16.38;55.52;101635.34;6028782;23;20034;-78
2023/10/16 09:14:40;;;;;;;7.00;2.30;;;;;;;16.42;55.34;101632.22;6029768;23;20262;-78
2023/10/16 09:17:07;;;;;;;6.82;2.03;;;;;;;16.31;55.11;101621.72;6002996;23;20029;-78
2023/10/16 09:19:45;;;;;;;20.60;2.50;;;;;;;16.28;55.61;101615.81;5976718;23;20456;-79
2023/10/16 09:22:31;;;;;;;8.98;2.90;;;;;;;16.39;55.54;101623.66;5990587;23;20021;-78
2023/10/16 09:24:59;;;;;;;8.60;3.08;;;;;;;16.44;55.76;101629.41;5990991;23;20059;-79
2023/10/16 09:27:32;;;;;;;13.10;2.28;;;;;;;16.06;55.62;101561.63;6016063;23;20043;-79
2023/10/16 09:30:01;;;;;;;12.68;2.35;;;;;;;16.50;55.95;101625.28;5981397;23;20018;-78
2023/10/16 09:32:39;;;;;;;6.57;1.77;;;;;;;16.30;56.65;101579.81;5969283;23;20027;-78
2023/10/16 09:35:12;;;;;;;8.57;2.45;;;;;;;16.63;55.74;101631.13;5986589;23;20403;-77
2023/10/16 09:37:47;;;;;;;9.50;2.63;;;;;;;16.68;54.82;101628.84;5997470;23;20094;-77
2023/10/16 09:40:35;;;;;;;7.93;2.55;;;;;;;16.69;54.49;101627.81;5973764;23;20019;-77
2023/10/16 09:43:24;;;;;;;7.55;2.67;;;;;;;16.43;54.29;101577.66;5980124;23;20026;-79
2023/10/16 09:46:33;;;;;;;8.68;2.17;;;;;;;16.73;55.53;101621.16;5962326;23;20110;-79
2023/10/16 09:48:39;;;;;;;8.57;3.33;;;;;;;16.78;54.53;101626.09;5976405;23;20038;-78
2023/10/16 09:51:09;;;;;;;11.50;2.50;;;;;;;16.76;55.54;101618.19;5991523;23;20015;-78
2023/10/16 09:53:41;;;;;;;7.60;2.40;;;;;;;16.87;54.77;101628.72;6005024;23;20447;-78
2023/10/16 09:56:12;;;;;;;6.68;2.28;;;;;;;16.88;55.57;101629.56;6005353;23;20518;-79
2023/10/16 09:58:44;;;;;;;7.13;2.67;;;;;;;16.90;55.42;101626.75;5977155;23;20445;-79
2023/10/16 10:01:29;;;;;;;7.05;2.53;;;;;;;16.96;55.02;101635.00;5986502;23;20034;-79
2023/10/16 10:04:03;;;;;;;2.90;2.50;;;;;;;16.63;55.03;101559.59;6018803;23;20022;-79
2023/10/16 10:06:38;;;;;;;4.43;2.45;;;;;;;17.06;54.33;101626.88;5991552;23;20038;-76
2023/10/16 10:12:15;;;;;;;4.80;2.15;;;;;;;16.90;54.13;101621.38;5988544;23;20441;-77
2023/10/16 10:14:48;;;;;;;4.85;2.55;;;;;;;16.97;55.44;101635.88;5948148;23;20027;-78
2023/10/16 10:17:20;;;;;;;12.18;2.80;;;;;;;16.97;54.99;101636.69;6009786;23;20086;-77
2023/10/16 10:20:00;;;;;;;10.75;3.00;;;;;;;16.97;54.65;101627.81;5961497;23;20063;-76
2023/10/16 10:22:44;;;;;;;8.27;2.85;;;;;;;16.85;54.82;101603.91;5964653;23;20057;-77
2023/10/16 10:25:22;;;;;;;8.83;3.57;;;;;;;16.90;53.89;101613.34;5993646;23;20023;-76
2023/10/16 10:27:50;;;;;;;9.45;2.60;;;;;;;16.85;54.90;101593.16;5977844;23;20081;-76
2023/10/16 10:30:27;;;;;;;8.90;3.08;;;;;;;17.00;55.00;101614.09;5973726;23;20439;-77
2023/10/16 10:33:05;;;;;;;6.65;2.88;;;;;;;17.08;54.08;101617.66;5994782;23;20026;-75
2023/10/16 10:35:38;;;;;;;8.82;2.63;;;;;;;16.97;54.16;101611.72;6024780;23;20062;-78
2023/10/16 10:38:17;;;;;;;6.00;2.25;;;;;;;16.86;54.33;101600.22;5994727;23;20746;-77
2023/10/16 10:41:10;;;;;;;2.78;2.20;;;;;;;16.98;54.45;101608.03;5980675;23;20027;-76
2023/10/16 10:43:58;;;;;;;9.05;2.40;;;;;;;16.58;54.79;101550.31;6012483;23;20030;-76
2023/10/16 10:46:30;;;;;;;12.80;2.70;;;;;;;16.94;54.88;101598.59;5977708;23;20015;-78
2023/10/16 10:49:01;;;;;;;8.02;2.67;;;;;;;17.05;54.66;101601.06;5980516;23;20047;-77
2023/10/16 10:51:35;;;;;;;4.00;2.42;;;;;;;16.96;55.25;101596.59;5979708;23;20030;-77
2023/10/16 10:54:06;;;;;;;7.60;2.95;;;;;;;17.00;55.36;101598.00;5941229;23;20462;-77
2023/10/16 10:56:53;;;;;;;5.72;2.80;;;;;;;16.88;55.15;101582.13;6007873;23;20423;-72
2023/10/16 10:59:40;;;;;;;7.50;2.88;;;;;;;16.86;55.21;101585.97;5993187;23;20029;-78
2023/10/16 11:04:58;;;;;;;4.65;2.40;;;;;;;16.87;55.78;101580.47;6020669;23;20053;-78
2023/10/16 11:07:39;;;;;;;6.60;3.05;;;;;;;16.93;55.55;101578.16;6002901;23;20125;-78
2023/10/16 11:10:07;;;;;;;7.28;2.97;;;;;;;17.00;55.91;101581.91;6014954;23;20478;-78
2023/10/16 11:12:34;;;;;;;6.10;3.83;;;;;;;17.04;55.51;101580.59;6005764;23;20084;-77
2023/10/16 11:15:05;;;;;;;3.22;2.63;;;;;;;16.91;55.32;101546.09;6035128;23;20340;-79
2023/10/16 11:17:44;;;;;;;17.75;3.08;;;;;;;17.17;55.17;101577.50;5996455;23;20015;-78
2023/10/16 11:22:45;;;;;;;10.40;3.40;;;;;;;16.86;55.46;101514.38;6001340;23;20019;-78
2023/10/16 11:25:14;;;;;;;4.65;3.10;;;;;;;16.69;55.44;101472.31;6010556;23;20082;-79
2023/10/16 11:27:51;;;;;;;6.07;3.20;;;;;;;17.11;55.26;101541.41;5983838;23;20023;-79
2023/10/16 11:30:18;;;;;;;9.52;2.97;;;;;;;17.14;55.48;101548.31;5978473;23;20352;-79
2023/10/16 11:32:49;;;;;;;6.05;3.22;;;;;;;17.30;55.25;101559.97;5996504;23;20097;-76
2023/10/16 11:35:17;;;;;;;5.30;3.53;;;;;;;17.23;55.28;101537.50;6038844;23;20054;-80
2023/10/16 11:38:12;;;;;;;7.65;3.17;;;;;;;16.99;54.69;101497.03;6007638;23;20117;-79
2023/10/16 11:40:44;;;;;;;4.70;3.45;;;;;;;17.26;54.98;101547.91;6044723;23;20027;-78
2023/10/16 11:43:11;;;;;;;8.23;3.35;;;;;;;17.20;55.38;101521.69;6018095;23;20101;-78
2023/10/16 11:45:39;;;;;;;5.30;3.30;;;;;;;17.33;55.33;101536.50;5981071;23;20420;-80
2023/10/16 11:51:10;;;;;;;9.60;3.13;;;;;;;17.57;55.17;101543.88;5991339;23;20018;-78
2023/10/16 11:53:37;;;;;;;5.45;2.92;;;;;;;17.47;54.86;101522.50;6040719;23;20627;-79
2023/10/16 11:56:18;;;;;;;6.60;3.30;;;;;;;17.58;54.90;101527.63;6006404;23;20553;-79
2023/10/16 11:58:54;;;;;;;12.00;3.60;;;;;;;17.52;54.71;101518.38;5995518;23;20023;-79
2023/10/16 12:01:21;;;;;;;7.05;3.05;;;;;;;16.94;54.89;101408.16;6010018;23;20025;-77
2023/10/16 12:04:09;;;;;;;5.28;2.95;;;;;;;17.68;55.22;101514.06;5994714;23;20350;-78
2023/10/16 12:06:38;;;;;;;6.82;3.42;;;;;;;17.73;54.27;101501.84;5990279;23;20433;-79
2023/10/16 12:09:13;;;;;;;8.20;3.35;;;;;;;17.75;53.67;101482.91;6022847;23;20026;-77
2023/10/16 12:11:43;;;;;;;8.30;3.25;;;;;;;17.93;54.02;101517.72;6054732;23;20046;-79
2023/10/16 12:14:19;;;;;;;13.35;3.20;;;;;;;17.99;53.64;101511.72;6008804;23;20102;-77
2023/10/16 12:16:49;;;;;;;5.97;3.17;;;;;;;17.99;53.62;101509.03;6035435;23;20026;-79
2023/10/16 12:19:17;;;;;;;7.85;2.95;;;;;;;18.00;53.29;101488.38;6041780;23;20042;-76
2023/10/16 12:21:52;;;;;;;13.95;3.42;;;;;;;18.07;53.04;101505.53;5987866;23;20026;-78
2023/10/16 12:24:24;;;;;;;6.18;3.20;;;;;;;18.09;52.56;101501.66;5990360;23;20030;-78
2023/10/16 12:26:52;;;;;;;9.85;3.50;;;;;;;17.98;53.26;101483.16;6026899;23;20392;-78
2023/10/16 12:29:19;;;;;;;8.38;3.35;;;;;;;18.02;52.79;101492.56;6001652;23;20027;-78
2023/10/16 12:31:48;;;;;;;10.52;3.17;;;;;;;17.79;52.63;101437.72;5985976;23;20025;-77
2023/10/16 12:34:17;;;;;;;9.57;3.03;;;;;;;18.03;52.63;101471.91;6016882;23;20077;-81
2023/10/16 12:36:49;;;;;;;7.18;2.47;;;;;;;18.12;53.73;101495.94;5988998;23;20343;-78
2023/10/16 12:39:28;;;;;;;6.35;2.58;;;;;;;17.86;53.13;101425.38;5974929;23;20026;-78
2023/10/16 12:41:56;;;;;;;4.95;1.98;;;;;;;18.39;52.88;101488.63;5991533;23;20030;-78
2023/10/16 12:44:23;;;;;;;5.65;2.47;;;;;;;18.42;51.78;101474.00;6034332;23;20034;-78
2023/10/16 12:46:53;;;;;;;8.35;1.80;;;;;;;18.64;52.60;101475.19;5992643;23;20089;-78
2023/10/16 12:49:21;;;;;;;3.83;1.52;;;;;;;19.00;52.68;101479.25;5997632;23;20026;-78
2023/10/16 12:51:51;;;;;;;6.85;2.15;;;;;;;19.23;55.18;101475.84;6050137;23;20074;-79
2023/10/16 12:54:20;;;;;;;6.88;2.00;;;;;;;19.27;54.07;101465.53;6073502;23;20059;-78
2023/10/16 12:57:11;;;;;;;3.50;1.35;;;;;;;19.30;51.88;101460.69;6006550;23;20326;-78
2023/10/16 12:59:38;;;;;;;5.80;3.45;;;;;;;19.43;52.46;101458.25;5988349;23;20101;-78
2023/10/16 13:02:05;;;;;;;7.57;3.22;;;;;;;19.71;53.24;101471.31;6007537;23;20064;-78
2023/10/16 13:04:33;;;;;;;7.93;1.52;;;;;;;19.88;50.00;101469.41;6010910;23;20082;-78
2023/10/16 13:07:01;;;;;;;9.30;1.70;;;;;;;19.80;48.83;101472.94;6008481;23;20032;-76
2023/10/16 13:09:30;;;;;;;5.22;1.80;;;;;;;19.84;52.22;101470.75;6051898;23;20022;-78
2023/10/16 13:11:57;;;;;;;3.83;1.70;;;;;;;19.84;50.53;101474.28;6023959;23;20523;-79
2023/10/16 13:14:25;;;;;;;6.47;2.13;;;;;;;19.99;53.42;101477.06;5986669;23;20465;-79
2023/10/16 13:16:56;;;;;;;7.57;1.48;;;;;;;19.94;48.53;101465.13;6040440;23;20042;-78
2023/10/16 13:19:27;;;;;;;4.88;1.63;;;;;;;19.69;52.77;101405.19;6002398;23;20023;-79
2023/10/16 13:21:54;;;;;;;3.55;1.38;;;;;;;20.17;52.46;101475.94;5985247;23;20112;-77
2023/10/16 13:24:21;;;;;;;4.68;1.60;;;;;;;20.16;49.29;101477.81;5996717;23;20074;-79
2023/10/16 13:26:48;;;;;;;6.30;1.60;;;;;;;20.01;50.08;101471.50;5981880;23;20542;-77
2023/10/16 13:29:18;;;;;;;2.58;1.27;;;;;;;20.05;53.60;101459.34;5984632;23;20853;-78
2023/10/16 13:31:48;;;;;;;7.63;1.73;;;;;;;20.22;49.72;101473.53;5964977;23;20090;-78
2023/10/16 13:34:15;;;;;;;1.90;1.35;;;;;;;20.35;52.58;101462.19;5999010;23;20030;-77
2023/10/16 13:36:56;;;;;;;6.10;1.75;;;;;;;20.38;53.42;101464.50;6007956;23;20438;-78
2023/10/16 13:39:24;;;;;;;9.13;1.80;;;;;;;20.28;50.91;101452.09;5993214;23;20145;-77
2023/10/16 13:41:52;;;;;;;3.58;1.70;;;;;;;20.31;51.18;101460.84;5976855;23;20027;-77
2023/10/16 13:44:25;;;;;;;9.57;2.28;;;;;;;20.04;52.77;101392.97;5935573;23;20589;-78
2023/10/16 13:47:08;;;;;;;5.85;1.95;;;;;;;20.18;51.84;101385.97;5938847;23;20061;-78
2023/10/16 13:49:37;;;;;;;7.03;2.13;;;;;;;20.70;52.03;101453.50;5967380;23;20388;-77
2023/10/16 13:52:07;;;;;;;5.30;1.80;;;;;;;20.48;46.75;101446.22;6042791;23;20026;-77
2023/10/16 13:54:44;;;;;;;2.95;1.75;;;;;;;20.47;52.20;101445.41;6024775;23;20026;-78